Time;durP1;ratioP1;P1;durP2;ratioP2;P2;SDS_P1;SDS_P2;PMS_P1;PMS_P2;Temp;Humidity;BMP_temperature;BMP_pressure;BME280_temperature;BME280_humidity;BME280_pressure;Samples;Min_cycle;Max_cycle;Signal;HPM_P1;HPM_P2
2023/03/22 00:02:05;;;;;;;49.47;28.07;;;10.30;99.90;;;;;;4931783;29;20204;-88
2023/03/22 00:04:32;;;;;;;53.47;30.00;;;10.30;99.90;;;;;;4920881;29;20206;-88
2023/03/22 00:07:00;;;;;;;48.33;27.20;;;10.30;99.90;;;;;;4936680;29;20212;-88
2023/03/22 00:09:27;;;;;;;48.20;27.77;;;10.30;99.90;;;;;;4933969;29;20218;-88
2023/03/22 00:11:54;;;;;;;49.53;28.33;;;10.30;99.90;;;;;;4935215;29;20193;-88
2023/03/22 00:14:21;;;;;;;51.80;28.17;;;10.30;99.90;;;;;;4935547;29;20201;-88
2023/03/22 00:16:48;;;;;;;49.87;28.93;;;10.40;99.90;;;;;;4935657;29;20214;-88
2023/03/22 00:19:16;;;;;;;53.30;28.80;;;10.40;99.90;;;;;;4926888;29;20652;-88
2023/03/22 00:21:42;;;;;;;53.03;29.03;;;10.30;1.00;;;;;;4935792;29;20721;-88
2023/03/22 00:24:10;;;;;;;51.37;29.60;;;10.40;1.00;;;;;;4935243;29;20577;-88
2023/03/22 00:26:37;;;;;;;49.77;28.50;;;10.30;1.00;;;;;;4935714;29;20211;-88
2023/03/22 00:29:04;;;;;;;51.67;28.43;;;10.40;1.00;;;;;;4935345;29;20226;-88
2023/03/22 00:31:31;;;;;;;53.70;28.50;;;10.40;1.00;;;;;;4935487;29;20210;-89
2023/03/22 00:33:58;;;;;;;52.07;29.30;;;10.40;1.00;;;;;;4935747;29;20206;-88
2023/03/22 00:36:25;;;;;;;55.70;29.70;;;10.30;1.00;;;;;;4935199;29;20212;-88
2023/03/22 00:38:51;;;;;;;53.07;29.87;;;10.40;1.00;;;;;;4934850;29;20195;-88
2023/03/22 00:41:21;;;;;;;60.70;31.63;;;10.30;1.00;;;;;;4935315;29;20201;-88
2023/03/22 00:43:50;;;;;;;53.80;30.00;;;10.40;99.90;;;;;;4934832;29;20200;-89
2023/03/22 00:46:19;;;;;;;53.03;29.80;;;10.30;99.90;;;;;;4934907;29;20203;-89
2023/03/22 00:48:45;;;;;;;57.03;30.70;;;10.40;99.90;;;;;;4933697;29;20278;-89
2023/03/22 00:51:14;;;;;;;57.07;31.40;;;10.30;99.90;;;;;;4935360;29;20201;-88
2023/03/22 00:53:41;;;;;;;53.73;29.23;;;10.40;99.90;;;;;;4935270;29;20202;-88
2023/03/22 00:56:09;;;;;;;59.07;31.53;;;10.30;99.90;;;;;;4935457;29;20234;-88
2023/03/22 00:58:37;;;;;;;59.20;30.40;;;10.40;99.90;;;;;;4934954;29;20630;-88
2023/03/22 01:01:04;;;;;;;58.20;31.10;;;10.30;99.90;;;;;;4935661;29;20189;-88
2023/03/22 01:03:32;;;;;;;56.33;31.10;;;10.30;99.90;;;;;;4924430;29;20690;-88
2023/03/22 01:05:59;;;;;;;61.60;30.20;;;10.30;1.00;;;;;;4931223;29;20253;-89
2023/03/22 01:08:32;;;;;;;60.40;31.07;;;10.30;1.00;;;;;;4935111;29;20568;-88
2023/03/22 01:10:59;;;;;;;62.70;32.13;;;10.30;1.00;;;;;;4934921;29;20204;-88
2023/03/22 01:13:26;;;;;;;65.73;32.07;;;10.30;1.00;;;;;;4935273;29;20198;-88
2023/03/22 01:15:54;;;;;;;64.57;32.37;;;10.30;1.00;;;;;;4935539;29;20202;-88
2023/03/22 01:18:21;;;;;;;68.73;32.93;;;10.20;1.00;;;;;;4934550;29;20201;-88
2023/03/22 01:20:48;;;;;;;71.87;33.27;;;10.30;1.00;;;;;;4934897;29;20210;-88
2023/03/22 01:23:15;;;;;;;63.23;32.53;;;10.30;1.00;;;;;;4934709;29;20226;-88
2023/03/22 01:25:42;;;;;;;61.03;33.20;;;10.30;1.00;;;;;;4934724;29;20209;-88
2023/03/22 01:28:09;;;;;;;68.47;35.27;;;10.30;1.00;;;;;;4934889;29;20202;-87
2023/03/22 01:30:35;;;;;;;66.53;34.33;;;10.30;1.00;;;;;;4934914;29;20218;-88
2023/03/22 01:33:04;;;;;;;65.50;32.60;;;10.30;1.00;;;;;;4934595;29;20207;-88
2023/03/22 01:35:31;;;;;;;65.27;32.73;;;10.30;1.00;;;;;;4934704;29;20200;-88
2023/03/22 01:37:58;;;;;;;64.70;32.07;;;10.40;1.00;;;;;;4934597;29;20237;-88
2023/03/22 01:40:27;;;;;;;65.33;31.80;;;10.30;1.00;;;;;;4918745;29;20217;-88
2023/03/22 01:42:54;;;;;;;65.63;32.57;;;10.30;1.00;;;;;;4934928;29;20200;-88
2023/03/22 01:45:40;;;;;;;65.57;32.30;;;10.30;1.00;;;;;;4934584;29;20648;-88
2023/03/22 01:48:17;;;;;;;66.10;32.30;;;10.30;1.00;;;;;;4934628;29;20200;-88
2023/03/22 01:50:49;;;;;;;66.23;32.80;;;10.30;1.00;;;;;;4930076;29;20215;-88
2023/03/22 01:53:22;;;;;;;61.10;30.83;;;10.30;20.50;;;;;;4923708;29;20194;-88
2023/03/22 01:55:49;;;;;;;59.73;30.50;;;10.20;78.30;;;;;;4934197;29;20204;-88
2023/03/22 01:58:17;;;;;;;68.80;32.17;;;10.30;99.90;;;;;;4937655;29;20239;-88
2023/03/22 02:00:45;;;;;;;60.73;31.63;;;10.30;99.90;;;;;;4938104;29;20207;-87
2023/03/22 02:03:15;;;;;;;62.63;33.40;;;10.30;99.90;;;;;;4929726;29;20205;-87
2023/03/22 02:05:43;;;;;;;64.83;31.90;;;10.30;99.90;;;;;;4931529;29;20254;-88
2023/03/22 02:08:13;;;;;;;65.67;32.93;;;10.30;99.90;;;;;;4937776;29;20205;-88
2023/03/22 02:10:40;;;;;;;63.93;32.97;;;10.30;99.90;;;;;;4937982;29;20243;-88
2023/03/22 02:13:26;;;;;;;61.97;32.10;;;10.30;99.90;;;;;;4937960;29;20573;-88
2023/03/22 02:16:04;;;;;;;64.30;31.33;;;10.30;99.90;;;;;;4937018;29;20730;-88
2023/03/22 02:18:46;;;;;;;62.70;30.57;;;10.30;99.90;;;;;;4933396;29;20198;-88
2023/03/22 02:22:01;;;;;;;57.17;29.73;;;10.30;99.90;;;;;;4931043;29;20275;-88
2023/03/22 02:25:03;;;;;;;57.77;28.77;;;10.40;99.90;;;;;;4938365;29;20663;-88
2023/03/22 02:27:45;;;;;;;53.23;27.80;;;10.40;99.90;;;;;;4938437;29;20205;-88
2023/03/22 02:30:39;;;;;;;51.60;28.57;;;10.30;99.90;;;;;;4938222;29;20701;-88
2023/03/22 02:33:22;;;;;;;52.87;28.03;;;10.40;1.00;;;;;;4938644;29;20205;-88
2023/03/22 02:36:04;;;;;;;48.80;27.07;;;10.40;1.00;;;;;;4938627;29;20194;-88
2023/03/22 02:39:06;;;;;;;50.67;27.77;;;10.40;1.00;;;;;;4938407;29;20201;-88
2023/03/22 02:41:45;;;;;;;50.83;26.97;;;10.40;1.00;;;;;;4938564;29;20257;-89
2023/03/22 02:44:21;;;;;;;52.40;27.50;;;10.50;1.00;;;;;;4938540;29;20199;-88
2023/03/22 02:46:58;;;;;;;50.53;27.67;;;10.50;1.00;;;;;;4938226;29;20194;-88
2023/03/22 02:49:32;;;;;;;50.67;27.17;;;10.50;1.00;;;;;;4938325;29;20565;-88
2023/03/22 02:52:04;;;;;;;50.93;26.93;;;10.50;1.00;;;;;;4937804;29;20209;-88
2023/03/22 02:54:38;;;;;;;53.30;26.87;;;10.50;1.00;;;;;;4936048;29;20573;-88
2023/03/22 02:57:10;;;;;;;53.87;26.77;;;10.50;1.00;;;;;;4938135;29;20205;-89
2023/03/22 02:59:40;;;;;;;51.37;26.73;;;10.50;1.00;;;;;;4938525;29;20191;-88
2023/03/22 03:02:10;;;;;;;56.47;26.20;;;10.50;1.00;;;;;;4940180;29;20208;-88
2023/03/22 03:04:41;;;;;;;64.17;27.63;;;10.50;1.00;;;;;;4937932;29;20205;-89
2023/03/22 03:07:13;;;;;;;49.73;25.23;;;10.60;1.00;;;;;;4937080;29;20198;-88
2023/03/22 03:09:43;;;;;;;55.93;26.47;;;10.50;1.00;;;;;;4925935;29;20309;-89
2023/03/22 03:12:14;;;;;;;52.43;26.77;;;10.50;1.00;;;;;;4934657;29;20201;-88
2023/03/22 03:14:42;;;;;;;64.50;27.93;;;10.50;1.00;;;;;;4935934;29;20202;-88
2023/03/22 03:17:19;;;;;;;58.13;26.03;;;10.60;1.00;;;;;;4937743;29;20621;-88
2023/03/22 03:19:57;;;;;;;63.20;26.23;;;10.60;1.00;;;;;;4923864;29;20199;-88
2023/03/22 03:22:36;;;;;;;54.13;26.03;;;10.60;1.00;;;;;;4937415;29;20230;-88
2023/03/22 03:25:09;;;;;;;67.00;27.37;;;10.60;1.00;;;;;;4936863;29;20568;-87
2023/03/22 03:27:40;;;;;;;57.53;26.53;;;10.60;1.00;;;;;;4937124;29;20210;-88
2023/03/22 03:30:12;;;;;;;61.33;26.03;;;10.60;1.00;;;;;;4937615;29;20218;-88
2023/03/22 03:32:44;;;;;;;59.27;26.03;;;10.60;1.00;;;;;;4937123;29;20202;-87
2023/03/22 03:35:21;;;;;;;66.60;27.07;;;10.60;1.00;;;;;;4937597;29;20206;-88
2023/03/22 03:37:51;;;;;;;57.83;25.97;;;10.60;1.00;;;;;;4937424;29;20210;-88
2023/03/22 03:40:23;;;;;;;63.77;26.87;;;10.60;1.00;;;;;;4937795;29;20284;-88
2023/03/22 03:42:53;;;;;;;55.40;26.40;;;10.60;1.00;;;;;;4934993;29;20210;-88
2023/03/22 03:45:21;;;;;;;56.63;26.00;;;10.60;1.00;;;;;;4937243;29;20583;-89
2023/03/22 03:47:54;;;;;;;78.37;28.33;;;10.60;1.00;;;;;;4937099;29;20249;-88
2023/03/22 03:50:21;;;;;;;51.20;25.43;;;10.60;1.50;;;;;;4937703;29;20286;-88
2023/03/22 03:52:48;;;;;;;55.33;24.80;;;10.60;1.00;;;;;;4925271;29;20204;-88
2023/03/22 03:55:15;;;;;;;50.23;25.00;;;10.60;1.00;;;;;;4935049;29;20546;-88
2023/03/22 03:57:44;;;;;;;58.93;26.10;;;10.60;1.00;;;;;;4936662;29;20678;-88
2023/03/22 04:00:13;;;;;;;62.97;26.97;;;10.60;43.50;;;;;;4927631;29;20615;-88
2023/03/22 04:02:40;;;;;;;52.90;25.30;;;10.70;63.50;;;;;;4929752;29;20208;-88
2023/03/22 04:05:08;;;;;;;47.43;24.73;;;10.60;11.90;;;;;;4936927;29;20207;-88
2023/03/22 04:07:35;;;;;;;52.63;25.07;;;10.70;39.70;;;;;;4937002;29;20206;-89
2023/03/22 04:10:04;;;;;;;48.43;24.50;;;10.70;26.90;;;;;;4936212;29;20577;-88
2023/03/22 04:12:31;;;;;;;44.97;23.10;;;10.70;14.40;;;;;;4937292;29;20206;-89
2023/03/22 04:14:59;;;;;;;54.30;26.43;;;10.60;28.80;;;;;;4936513;29;20195;-88
2023/03/22 04:17:27;;;;;;;49.27;25.00;;;10.60;99.90;;;;;;4936060;29;20209;-88
2023/03/22 04:19:55;;;;;;;45.47;25.27;;;10.70;99.90;;;;;;4936281;29;20199;-88
2023/03/22 04:22:22;;;;;;;51.40;25.33;;;10.70;99.90;;;;;;4936995;29;20230;-88
2023/03/22 04:24:49;;;;;;;47.13;22.77;;;10.70;99.90;;;;;;4934435;29;20202;-88
2023/03/22 04:27:17;;;;;;;46.70;23.40;;;10.70;99.90;;;;;;4929283;29;20245;-89
2023/03/22 04:29:47;;;;;;;40.23;21.87;;;10.70;99.90;;;;;;4930075;29;20193;-88
2023/03/22 04:32:17;;;;;;;46.47;22.43;;;10.60;99.90;;;;;;4936055;29;20675;-88
2023/03/22 04:34:45;;;;;;;46.07;22.83;;;10.70;99.90;;;;;;4935496;29;20196;-88
2023/03/22 04:37:12;;;;;;;45.67;22.80;;;10.70;99.90;;;;;;4935285;29;20202;-88
2023/03/22 04:39:39;;;;;;;44.93;22.73;;;10.70;99.90;;;;;;4926151;29;20203;-88
2023/03/22 04:42:06;;;;;;;40.40;21.63;;;10.70;99.90;;;;;;4932859;29;20198;-88
2023/03/22 04:44:32;;;;;;;40.90;21.37;;;10.70;99.90;;;;;;4936242;29;20205;-88
2023/03/22 04:46:59;;;;;;;43.47;22.33;;;10.70;99.90;;;;;;4935798;29;20206;-88
2023/03/22 04:49:28;;;;;;;42.50;21.67;;;10.70;99.90;;;;;;4936053;29;20202;-88
2023/03/22 04:51:55;;;;;;;42.50;22.93;;;10.70;99.90;;;;;;4935528;29;20592;-88
2023/03/22 04:54:22;;;;;;;42.87;23.33;;;10.70;99.90;;;;;;4935965;29;20207;-88
2023/03/22 04:56:50;;;;;;;53.73;24.80;;;10.70;99.90;;;;;;4937463;29;20206;-88
2023/03/22 04:59:19;;;;;;;46.93;23.70;;;10.60;99.90;;;;;;4936179;29;20198;-88
2023/03/22 05:01:45;;;;;;;49.37;24.93;;;10.60;99.90;;;;;;4936334;29;20243;-88
2023/03/22 05:04:12;;;;;;;51.67;25.07;;;10.60;99.90;;;;;;4935302;29;20203;-88
2023/03/22 05:06:41;;;;;;;50.97;24.93;;;10.60;99.90;;;;;;4935950;29;20199;-88
2023/03/22 05:09:07;;;;;;;48.67;24.00;;;10.60;99.90;;;;;;4936015;29;20198;-87
2023/03/22 05:11:35;;;;;;;57.23;25.47;;;10.60;99.90;;;;;;4935868;29;20211;-88
2023/03/22 05:14:01;;;;;;;62.80;26.83;;;10.60;99.90;;;;;;4936049;29;20200;-87
2023/03/22 05:16:29;;;;;;;61.47;25.53;;;10.60;99.90;;;;;;4935971;29;20218;-87
2023/03/22 05:18:55;;;;;;;50.73;24.90;;;10.70;99.90;;;;;;4922845;29;20208;-88
2023/03/22 05:21:27;;;;;;;57.97;25.80;;;10.70;99.90;;;;;;4934537;29;20230;-88
2023/03/22 05:23:56;;;;;;;67.97;27.27;;;10.70;99.90;;;;;;4935297;29;20200;-88
2023/03/22 05:26:25;;;;;;;69.93;28.53;;;10.60;99.90;;;;;;4935788;29;20205;-88
2023/03/22 05:28:52;;;;;;;68.90;27.87;;;10.70;1.00;;;;;;4935541;29;20200;-88
2023/03/22 05:31:20;;;;;;;64.20;28.33;;;10.70;1.00;;;;;;4936451;29;20219;-88
2023/03/22 05:33:47;;;;;;;61.87;27.50;;;10.70;1.00;;;;;;4938670;29;20199;-88
2023/03/22 05:36:14;;;;;;;78.27;28.97;;;10.70;1.00;;;;;;4939896;29;20206;-88
2023/03/22 05:38:41;;;;;;;72.73;27.70;;;10.80;1.00;;;;;;4939321;29;20204;-88
2023/03/22 05:41:09;;;;;;;68.90;29.93;;;10.80;1.00;;;;;;4940725;29;20210;-88
2023/03/22 05:43:36;;;;;;;67.77;28.23;;;10.80;1.00;;;;;;4929560;29;20206;-89
2023/03/22 05:46:05;;;;;;;61.83;26.73;;;10.90;1.00;;;;;;4938821;29;20241;-89
2023/03/22 05:48:32;;;;;;;60.43;26.20;;;10.90;1.00;;;;;;4938845;29;20207;-89
2023/03/22 05:50:59;;;;;;;55.33;27.33;;;10.90;1.00;;;;;;4939586;29;20226;-89
2023/03/22 05:53:26;;;;;;;56.33;26.97;;;11.00;1.00;;;;;;4939831;29;20670;-90
2023/03/22 05:55:56;;;;;;;54.20;26.47;;;11.00;1.00;;;;;;4939560;29;20203;-89
2023/03/22 05:58:27;;;;;;;57.07;26.03;;;11.00;1.00;;;;;;4939199;29;20666;-89
2023/03/22 06:00:54;;;;;;;59.07;27.07;;;11.00;1.00;;;;;;4933487;29;20235;-89
2023/03/22 06:03:21;;;;;;;52.20;25.43;;;11.00;1.00;;;;;;4939629;29;20570;-90
2023/03/22 06:05:49;;;;;;;56.93;26.77;;;11.10;1.00;;;;;;4939598;29;20220;-89
2023/03/22 06:08:16;;;;;;;62.10;27.60;;;11.10;1.00;;;;;;4941083;29;20212;-91
2023/03/22 17:35:51;;;;;;;16.00;9.87;;;12.80;1.00;;;;;;5515318;23;20234;-92
2023/03/22 17:38:18;;;;;;;23.23;12.23;;;12.80;1.00;;;;;;4947805;29;20201;-94
2023/03/22 17:40:45;;;;;;;19.93;11.90;;;12.80;1.00;;;;;;4948847;29;20686;-93
2023/03/22 17:43:12;;;;;;;19.90;12.67;;;12.80;1.00;;;;;;4946076;29;20200;-93
2023/03/22 17:45:39;;;;;;;23.60;13.03;;;12.90;1.00;;;;;;4947785;29;20208;-92
2023/03/22 17:48:07;;;;;;;21.37;14.20;;;12.90;1.00;;;;;;4943980;29;20203;-94
2023/03/22 17:50:35;;;;;;;19.17;12.20;;;12.90;1.00;;;;;;4947975;29;20235;-95
2023/03/22 17:53:05;;;;;;;57.90;44.07;;;12.90;1.00;;;;;;4950821;29;20586;-93
2023/03/22 17:55:34;;;;;;;28.57;18.13;;;12.90;1.00;;;;;;4947748;29;20205;-93
2023/03/22 17:58:02;;;;;;;114.27;62.67;;;13.00;1.00;;;;;;4947801;29;20694;-94
2023/03/22 18:00:29;;;;;;;30.70;19.30;;;13.00;1.00;;;;;;4946119;29;20640;-93
2023/03/22 18:02:55;;;;;;;23.63;14.27;;;13.00;1.00;;;;;;4945040;29;20194;-94
2023/03/22 18:05:25;;;;;;;16.80;11.43;;;13.00;1.00;;;;;;4939848;29;20210;-93
2023/03/22 18:07:52;;;;;;;18.60;10.33;;;13.00;1.00;;;;;;4954040;29;20550;-94
2023/03/22 18:10:21;;;;;;;19.27;11.97;;;13.00;1.00;;;;;;4949453;29;20204;-95
2023/03/22 18:12:49;;;;;;;20.90;12.27;;;13.10;1.00;;;;;;4951571;29;20220;-94
2023/03/22 18:15:18;;;;;;;23.13;12.53;;;13.10;1.00;;;;;;4956599;29;20206;-94
2023/03/22 18:17:46;;;;;;;25.83;14.33;;;13.10;1.00;;;;;;4956693;29;20207;-93
2023/03/22 18:20:18;;;;;;;22.90;15.97;;;13.00;1.00;;;;;;4953995;29;20290;-93
2023/03/22 18:22:45;;;;;;;23.03;14.73;;;13.00;1.00;;;;;;4952261;29;20198;-94
2023/03/22 18:25:12;;;;;;;23.50;14.77;;;13.00;1.00;;;;;;4952812;29;20221;-92
2023/03/22 18:27:40;;;;;;;22.00;14.97;;;13.00;1.00;;;;;;4950275;29;20207;-91
2023/03/22 18:30:08;;;;;;;21.27;14.27;;;12.90;1.00;;;;;;4939810;29;20209;-91
2023/03/22 18:32:35;;;;;;;21.70;13.17;;;12.90;1.00;;;;;;4939917;29;20219;-92
2023/03/22 18:35:02;;;;;;;22.20;14.23;;;12.80;1.00;;;;;;4946665;29;20236;-92
2023/03/22 18:37:29;;;;;;;21.47;13.50;;;12.70;1.00;;;;;;4939838;29;20183;-94
2023/03/22 18:39:56;;;;;;;24.67;15.03;;;12.60;1.00;;;;;;4939390;29;20262;-93
2023/03/22 18:42:22;;;;;;;19.57;13.20;;;12.60;1.00;;;;;;4939439;29;20203;-93
2023/03/22 18:44:51;;;;;;;21.47;14.10;;;12.60;1.00;;;;;;4939137;29;20669;-93
2023/03/22 18:47:18;;;;;;;23.70;12.20;;;12.50;1.00;;;;;;4939902;29;20294;-93
2023/03/22 18:49:45;;;;;;;22.07;11.93;;;12.50;1.00;;;;;;4945708;29;20216;-93
2023/03/22 18:52:12;;;;;;;17.73;12.30;;;12.50;1.00;;;;;;4952401;29;20229;-94
2023/03/22 18:54:39;;;;;;;22.50;11.53;;;12.50;1.00;;;;;;4958388;29;20210;-92
2023/03/22 18:57:06;;;;;;;21.43;13.50;;;12.50;1.00;;;;;;4954313;29;20201;-93
2023/03/22 18:59:33;;;;;;;22.80;13.47;;;12.50;1.00;;;;;;4951041;29;20201;-91
2023/03/22 19:02:01;;;;;;;18.50;13.10;;;12.50;1.00;;;;;;4939721;29;20191;-92
2023/03/22 19:04:28;;;;;;;17.80;12.10;;;12.50;1.00;;;;;;4948466;29;20191;-92
2023/03/22 19:06:56;;;;;;;17.07;11.77;;;12.50;1.00;;;;;;4947132;29;20208;-92
2023/03/22 19:09:24;;;;;;;19.33;11.90;;;12.50;1.00;;;;;;4940241;29;20199;-92
2023/03/22 19:11:51;;;;;;;19.47;13.07;;;12.50;1.00;;;;;;4940725;29;20223;-91
2023/03/22 19:14:18;;;;;;;19.00;12.47;;;12.50;1.00;;;;;;4957908;29;20549;-92
2023/03/22 19:16:45;;;;;;;18.27;13.33;;;12.50;1.00;;;;;;4944055;29;20209;-92
2023/03/22 19:19:13;;;;;;;20.80;13.67;;;12.50;1.00;;;;;;4958179;29;20209;-93
2023/03/22 19:21:39;;;;;;;22.80;13.70;;;12.50;1.00;;;;;;4957963;29;20198;-92
2023/03/22 19:24:07;;;;;;;18.63;13.13;;;12.50;1.00;;;;;;4953951;29;20203;-93
2023/03/22 19:26:34;;;;;;;25.57;16.97;;;12.60;1.00;;;;;;4957977;29;20201;-94
2023/03/22 19:29:02;;;;;;;28.97;19.53;;;12.50;1.00;;;;;;4958077;29;20568;-92
2023/03/22 19:31:30;;;;;;;26.03;18.53;;;12.60;1.00;;;;;;4957934;29;20632;-93
2023/03/22 19:33:57;;;;;;;26.50;19.47;;;12.60;1.00;;;;;;4953523;29;20205;-93
2023/03/22 19:36:26;;;;;;;32.57;23.50;;;12.50;1.00;;;;;;4952627;29;20290;-92
2023/03/22 19:38:54;;;;;;;21.30;14.17;;;12.50;1.00;;;;;;4938683;29;20202;-92
2023/03/22 19:41:21;;;;;;;18.17;12.63;;;12.50;1.00;;;;;;4938845;29;20205;-93
2023/03/22 19:43:48;;;;;;;21.07;14.07;;;12.50;1.00;;;;;;4938733;29;20211;-93
2023/03/22 19:46:15;;;;;;;17.90;12.10;;;12.50;1.00;;;;;;4952310;29;20207;-92
2023/03/22 19:48:42;;;;;;;18.47;12.47;;;12.50;1.00;;;;;;4957622;29;20199;-92
2023/03/22 19:51:09;;;;;;;29.20;18.43;;;12.50;1.00;;;;;;4956453;28;20216;-92
2023/03/22 19:53:39;;;;;;;21.90;14.70;;;12.50;1.00;;;;;;4957093;29;20225;-92
2023/03/22 19:56:06;;;;;;;23.53;14.53;;;12.50;1.00;;;;;;4938030;29;20290;-94
2023/03/22 19:58:33;;;;;;;21.67;13.87;;;12.50;1.00;;;;;;4938413;29;20246;-93
2023/03/22 20:01:08;;;;;;;18.03;12.27;;;12.50;1.00;;;;;;4949816;29;20214;-92
2023/03/22 20:03:35;;;;;;;20.90;12.60;;;12.50;1.00;;;;;;4957237;29;20205;-92
2023/03/22 20:06:03;;;;;;;17.40;11.53;;;12.50;1.00;;;;;;4957043;29;20200;-93
2023/03/22 20:08:30;;;;;;;17.33;11.63;;;12.50;1.00;;;;;;4953064;29;20194;-94
2023/03/22 20:10:58;;;;;;;19.63;12.57;;;12.50;1.00;;;;;;4952030;29;20210;-92
2023/03/22 20:13:25;;;;;;;27.27;16.40;;;12.60;1.00;;;;;;4956519;29;20225;-94
2023/03/22 20:15:52;;;;;;;31.10;19.60;;;12.60;1.00;;;;;;4957173;29;20212;-95
2023/03/22 20:18:19;;;;;;;33.43;19.53;;;12.60;1.00;;;;;;4956716;29;20201;-95
2023/03/22 20:20:50;;;;;;;27.37;16.17;;;12.60;1.00;;;;;;4957767;29;20233;-96
2023/03/22 20:23:18;;;;;;;22.30;14.50;;;12.60;1.00;;;;;;4957104;29;20237;-95
2023/03/22 20:25:50;;;;;;;25.60;15.63;;;12.60;1.00;;;;;;4950826;29;20622;-95
2023/03/22 20:28:19;;;;;;;18.37;13.67;;;12.60;1.00;;;;;;4947819;29;20198;-94
2023/03/22 20:30:46;;;;;;;17.97;14.13;;;12.70;1.00;;;;;;4957046;29;20208;-95
2023/03/22 20:33:13;;;;;;;26.30;21.53;;;12.70;1.00;;;;;;4954946;29;20219;-94
2023/03/22 20:35:41;;;;;;;28.37;21.03;;;12.60;1.00;;;;;;4937402;29;20234;-94
2023/03/22 20:38:08;;;;;;;26.33;20.63;;;12.60;1.00;;;;;;4938261;29;20203;-94
2023/03/22 20:40:35;;;;;;;20.53;15.20;;;12.60;1.00;;;;;;4956899;29;20203;-95
2023/03/22 20:43:02;;;;;;;19.60;13.10;;;12.60;13.40;;;;;;4952668;29;20190;-96
2023/03/22 20:45:31;;;;;;;13.33;10.20;;;12.60;23.20;;;;;;4937682;29;20204;-95
2023/03/22 20:47:58;;;;;;;12.17;9.30;;;12.60;48.30;;;;;;4956829;29;20202;-95
2023/03/22 20:50:25;;;;;;;11.07;8.90;;;12.60;44.90;;;;;;4950444;29;20206;-94
2023/03/22 20:52:51;;;;;;;11.90;8.50;;;12.60;65.30;;;;;;4937781;29;20225;-94
2023/03/22 20:55:18;;;;;;;10.17;7.47;;;12.60;63.80;;;;;;4937191;29;20194;-95
2023/03/22 20:57:46;;;;;;;12.73;8.10;;;12.50;88.30;;;;;;4947030;29;20201;-95
2023/03/22 21:00:14;;;;;;;11.43;7.90;;;12.50;63.80;;;;;;4953158;29;20195;-94
2023/03/22 21:02:42;;;;;;;11.00;7.90;;;12.60;57.90;;;;;;4942829;29;20201;-94
2023/03/22 21:05:13;;;;;;;12.00;8.80;;;12.50;53.90;;;;;;4944147;29;20574;-94
2023/03/22 21:07:41;;;;;;;12.83;9.27;;;12.50;48.10;;;;;;4943522;29;20657;-94
2023/03/22 21:10:08;;;;;;;13.57;8.77;;;12.50;61.20;;;;;;4956173;29;20209;-94
2023/03/22 21:12:36;;;;;;;20.37;13.13;;;12.50;70.40;;;;;;4954782;28;20227;-95
2023/03/22 21:15:03;;;;;;;41.50;22.10;;;12.40;83.30;;;;;;4945922;29;20210;-95
2023/03/22 21:17:30;;;;;;;51.30;25.90;;;12.40;97.60;;;;;;4962873;28;20657;-95
2023/03/22 21:19:59;;;;;;;33.80;18.97;;;12.40;99.90;;;;;;4963772;29;20214;-95
2023/03/22 21:22:25;;;;;;;24.23;13.63;;;12.30;99.90;;;;;;4952532;29;20214;-96
2023/03/22 21:24:53;;;;;;;13.53;9.90;;;12.30;99.90;;;;;;4954844;29;20199;-95
2023/03/22 21:27:24;;;;;;;12.80;8.60;;;12.30;99.90;;;;;;4958509;29;20213;-95
2023/03/22 21:29:51;;;;;;;10.37;7.50;;;12.30;99.90;;;;;;4947704;29;20236;-95
2023/03/22 21:32:19;;;;;;;12.30;7.57;;;12.30;99.90;;;;;;4944453;29;20213;-94
2023/03/22 21:34:46;;;;;;;15.20;9.13;;;12.20;99.90;;;;;;4950577;29;20192;-92
2023/03/22 21:37:14;;;;;;;11.27;8.20;;;12.20;99.90;;;;;;4964110;29;20284;-95
2023/03/22 21:39:42;;;;;;;13.23;8.90;;;12.20;99.90;;;;;;4964026;28;20283;-94
2023/03/22 21:42:10;;;;;;;12.07;9.43;;;12.20;99.90;;;;;;4962662;28;20196;-96
2023/03/22 21:44:37;;;;;;;13.57;8.53;;;12.20;99.90;;;;;;4964245;28;20660;-95
2023/03/22 21:47:05;;;;;;;12.87;7.33;;;12.10;99.90;;;;;;4946601;29;20209;-95
2023/03/22 21:49:32;;;;;;;12.10;7.50;;;12.20;99.90;;;;;;4957405;29;20572;-95
2023/03/22 21:52:02;;;;;;;12.43;7.47;;;12.10;99.90;;;;;;4950875;28;20202;-95
2023/03/22 21:54:30;;;;;;;16.87;8.90;;;12.10;99.90;;;;;;4943524;29;20229;-95
2023/03/22 21:56:57;;;;;;;11.20;8.50;;;12.10;99.90;;;;;;4943732;29;20204;-95
2023/03/22 21:59:26;;;;;;;11.73;8.10;;;12.10;99.90;;;;;;4944205;29;20658;-96
2023/03/22 22:01:54;;;;;;;13.17;8.10;;;12.10;99.90;;;;;;4952207;29;20712;-95
2023/03/22 22:04:21;;;;;;;10.53;7.80;;;12.00;99.90;;;;;;4963275;29;20296;-95
2023/03/22 22:06:48;;;;;;;13.07;7.57;;;12.00;99.90;;;;;;4963160;29;20287;-95
2023/03/22 22:09:15;;;;;;;10.13;7.67;;;12.00;99.90;;;;;;4962539;29;20228;-94
2023/03/22 22:11:43;;;;;;;9.67;7.63;;;12.00;99.90;;;;;;4963055;29;20208;-94
2023/03/22 22:14:10;;;;;;;10.40;6.50;;;12.00;99.90;;;;;;4958744;28;20221;-95
2023/03/22 22:16:37;;;;;;;9.73;7.07;;;12.00;99.90;;;;;;4954369;29;20201;-95
2023/03/22 22:19:04;;;;;;;12.77;7.53;;;12.00;99.90;;;;;;4941312;29;20201;-95
2023/03/22 22:21:33;;;;;;;11.03;7.33;;;12.00;99.90;;;;;;4948506;29;20276;-95
2023/03/22 22:24:00;;;;;;;9.90;6.97;;;12.10;99.90;;;;;;4959888;29;20272;-95
2023/03/22 22:26:27;;;;;;;10.77;6.43;;;12.00;99.90;;;;;;4959220;29;20232;-95
2023/03/22 22:28:55;;;;;;;12.73;6.23;;;12.00;99.90;;;;;;4959463;29;20201;-95
2023/03/22 22:31:24;;;;;;;8.07;6.27;;;12.00;99.90;;;;;;4944214;29;20614;-95
2023/03/22 22:33:52;;;;;;;8.93;6.40;;;12.00;99.90;;;;;;4951236;29;20222;-94
2023/03/22 22:36:20;;;;;;;9.87;6.90;;;12.00;99.90;;;;;;4955883;29;20261;-96
2023/03/22 22:38:47;;;;;;;10.00;6.70;;;11.80;99.90;;;;;;4958638;29;20208;-95
2023/03/22 22:41:16;;;;;;;11.07;6.33;;;11.70;99.90;;;;;;4967103;29;20200;-96
2023/03/22 22:43:43;;;;;;;9.40;6.83;;;11.70;99.90;;;;;;4973616;29;20265;-96
2023/03/22 22:46:12;;;;;;;10.07;6.33;;;11.60;99.90;;;;;;4954776;29;20209;-96
2023/03/22 22:48:41;;;;;;;10.67;6.83;;;11.50;99.90;;;;;;4950014;29;20218;-96
2023/03/22 22:51:09;;;;;;;9.00;5.57;;;11.40;99.90;;;;;;4944974;29;20218;-96
2023/03/22 22:53:37;;;;;;;9.07;6.13;;;11.40;99.90;;;;;;4941095;29;20220;-95
2023/03/22 22:56:06;;;;;;;9.23;5.60;;;11.30;99.90;;;;;;4955440;29;20567;-95
2023/03/22 22:58:33;;;;;;;9.13;5.27;;;11.30;99.90;;;;;;4958450;29;20548;-95
2023/03/22 23:01:00;;;;;;;9.87;5.80;;;11.20;99.90;;;;;;4958728;29;20206;-94
2023/03/22 23:03:29;;;;;;;9.07;5.50;;;11.20;1.00;;;;;;4962302;29;20219;-96
2023/03/22 23:05:56;;;;;;;8.33;5.80;;;11.20;1.00;;;;;;4963666;29;20208;-95
2023/03/22 23:08:23;;;;;;;9.77;5.60;;;11.10;1.00;;;;;;4946728;29;20210;-95
2023/03/22 23:10:52;;;;;;;9.10;6.13;;;11.10;1.00;;;;;;4957654;29;20289;-95
2023/03/22 23:13:19;;;;;;;11.50;6.80;;;11.20;1.00;;;;;;4951541;29;20219;-96
2023/03/22 23:15:48;;;;;;;7.50;5.83;;;11.20;99.90;;;;;;4940146;29;20229;-95
2023/03/22 23:18:21;;;;;;;10.40;6.33;;;11.20;99.90;;;;;;4943865;29;20217;-96
2023/03/22 23:20:50;;;;;;;10.70;6.00;;;11.30;99.90;;;;;;4948248;29;20632;-95
2023/03/22 23:23:19;;;;;;;9.73;6.20;;;11.30;99.90;;;;;;4954187;29;20598;-96
2023/03/22 23:25:46;;;;;;;7.77;5.53;;;11.30;99.90;;;;;;4965101;28;20198;-95
2023/03/22 23:28:13;;;;;;;9.90;5.50;;;11.30;99.90;;;;;;4953171;29;20587;-95
2023/03/22 23:30:40;;;;;;;8.97;6.13;;;11.30;99.90;;;;;;4955340;29;20223;-95
2023/03/22 23:33:07;;;;;;;12.33;7.70;;;11.20;99.90;;;;;;4943732;29;20310;-96
2023/03/22 23:35:36;;;;;;;13.27;9.90;;;11.20;99.90;;;;;;4940919;29;20263;-94
2023/03/22 23:38:04;;;;;;;14.37;9.40;;;11.20;99.90;;;;;;4940903;29;20240;-95
2023/03/22 23:40:31;;;;;;;23.13;14.37;;;11.20;99.90;;;;;;4954242;29;20203;-96
2023/03/22 23:42:58;;;;;;;20.70;13.33;;;11.20;99.90;;;;;;4944788;29;20210;-94
2023/03/22 23:45:25;;;;;;;16.73;11.07;;;11.20;99.90;;;;;;4944878;29;20314;-95
2023/03/22 23:47:52;;;;;;;17.67;13.13;;;11.20;99.90;;;;;;4948777;29;20292;-95
2023/03/22 23:50:19;;;;;;;21.60;11.03;;;11.10;99.90;;;;;;4959671;29;20209;-95
2023/03/22 23:52:46;;;;;;;15.10;9.77;;;11.10;99.90;;;;;;4958138;29;20265;-95
2023/03/22 23:55:16;;;;;;;10.17;7.30;;;11.10;99.90;;;;;;4947384;29;20199;-96
2023/03/22 23:57:44;;;;;;;9.67;6.90;;;11.10;99.90;;;;;;4939874;29;20650;-96
